Time;durP1;ratioP1;P1;durP2;ratioP2;P2;SDS_P1;SDS_P2;PMS_P1;PMS_P2;Temp;Humidity;BMP_temperature;BMP_pressure;BME280_temperature;BME280_humidity;BME280_pressure;Samples;Min_cycle;Max_cycle;Signal;HPM_P1;HPM_P2
2022/08/01 00:00:45;;;;;;;2.07;1.77;;;21.60;96.80;;;;;;5013089;28;21126;-72
2022/08/01 00:03:12;;;;;;;2.43;2.23;;;21.50;97.20;;;;;;5012990;28;20545;-73
2022/08/01 00:05:39;;;;;;;2.37;2.17;;;21.50;96.80;;;;;;5012252;28;20483;-72
2022/08/01 00:08:06;;;;;;;2.27;2.07;;;21.50;97.10;;;;;;5012921;28;20464;-71
2022/08/01 00:10:32;;;;;;;2.30;2.10;;;21.50;97.30;;;;;;5012506;28;20484;-71
2022/08/01 00:12:59;;;;;;;2.13;1.93;;;21.50;97.50;;;;;;5012841;28;20467;-71
2022/08/01 00:15:27;;;;;;;2.30;2.10;;;21.40;97.60;;;;;;5012193;28;20461;-72
2022/08/01 00:17:54;;;;;;;2.50;2.00;;;21.40;97.60;;;;;;5012742;28;20562;-71
2022/08/01 00:20:21;;;;;;;2.20;2.00;;;21.40;97.90;;;;;;5012658;28;20458;-70
2022/08/01 00:22:48;;;;;;;1.90;1.80;;;21.40;97.90;;;;;;5012649;28;20479;-73
2022/08/01 00:25:14;;;;;;;1.93;1.83;;;21.30;97.80;;;;;;5012101;28;20554;-71
2022/08/01 00:27:41;;;;;;;4.30;2.23;;;21.30;98.20;;;;;;5012343;28;20467;-71
2022/08/01 00:30:09;;;;;;;1.53;1.43;;;21.30;98.70;;;;;;5012363;28;20486;-71
2022/08/01 00:32:37;;;;;;;2.30;2.10;;;21.20;98.30;;;;;;5012342;28;20462;-71
2022/08/01 00:35:04;;;;;;;1.93;1.80;;;21.20;98.50;;;;;;5011781;28;20958;-70
2022/08/01 00:37:31;;;;;;;2.40;2.20;;;21.20;98.70;;;;;;5012100;28;20488;-71
2022/08/01 00:39:58;;;;;;;2.17;1.97;;;21.10;98.60;;;;;;5012289;28;20454;-71
2022/08/01 00:42:24;;;;;;;2.30;2.10;;;21.10;98.50;;;;;;5012139;28;20466;-70
2022/08/01 00:44:51;;;;;;;2.00;1.90;;;21.00;98.30;;;;;;5011661;28;20463;-72
2022/08/01 00:47:18;;;;;;;1.90;1.80;;;21.00;98.30;;;;;;5012164;28;20492;-70
2022/08/01 00:49:46;;;;;;;2.63;2.43;;;21.00;98.40;;;;;;5012002;28;20490;-71
2022/08/01 00:52:13;;;;;;;2.33;2.13;;;21.00;98.50;;;;;;5012168;28;20841;-70
2022/08/01 00:54:40;;;;;;;2.47;2.27;;;20.90;98.70;;;;;;5011346;28;20465;-72
2022/08/01 00:57:07;;;;;;;2.77;2.50;;;20.90;98.90;;;;;;5011942;28;20497;-70
2022/08/01 00:59:35;;;;;;;2.27;2.10;;;20.90;98.60;;;;;;5011020;28;20559;-72
2022/08/01 01:02:02;;;;;;;2.20;2.00;;;20.90;98.90;;;;;;5011714;28;20461;-71
2022/08/01 01:04:29;;;;;;;3.03;2.23;;;20.90;98.70;;;;;;5011176;28;20467;-71
2022/08/01 01:07:05;;;;;;;2.20;2.00;;;20.90;98.60;;;;;;5011823;28;20485;-70
2022/08/01 01:09:40;;;;;;;2.40;2.20;;;20.80;98.50;;;;;;5011379;28;20462;-70
2022/08/01 01:12:20;;;;;;;2.70;2.50;;;20.80;98.80;;;;;;5011801;28;20465;-70
2022/08/01 01:14:53;;;;;;;2.23;2.03;;;20.80;98.80;;;;;;5010970;28;20949;-70
2022/08/01 01:17:33;;;;;;;2.20;2.00;;;20.80;99.10;;;;;;5011618;28;20493;-70
2022/08/01 01:20:03;;;;;;;2.17;1.97;;;20.80;99.10;;;;;;5011585;28;20953;-71
2022/08/01 01:22:48;;;;;;;2.47;2.07;;;20.80;99.30;;;;;;5011422;28;20557;-71
2022/08/01 01:25:34;;;;;;;6.73;2.27;;;20.80;99.40;;;;;;5010963;28;20477;-71
2022/08/01 01:28:09;;;;;;;2.60;2.40;;;20.80;99.30;;;;;;5011460;28;20529;-71
2022/08/01 01:30:41;;;;;;;2.47;2.10;;;20.70;99.60;;;;;;5011127;28;20481;-71
2022/08/01 01:33:10;;;;;;;2.40;2.10;;;20.70;99.90;;;;;;5011424;28;20569;-72
2022/08/01 01:35:42;;;;;;;2.37;2.17;;;20.70;99.90;;;;;;5010668;28;20569;-71
2022/08/01 01:38:15;;;;;;;2.80;2.20;;;20.60;99.70;;;;;;5011124;28;20465;-71
2022/08/01 01:40:44;;;;;;;2.20;1.97;;;20.60;99.60;;;;;;5011183;28;20459;-71
2022/08/01 01:43:13;;;;;;;2.30;2.10;;;20.60;99.90;;;;;;5011142;28;20465;-72
2022/08/01 01:45:45;;;;;;;2.50;2.30;;;20.60;99.90;;;;;;5010507;28;20508;-72
2022/08/01 01:48:14;;;;;;;4.07;2.40;;;20.50;99.80;;;;;;5011072;28;20469;-71
2022/08/01 01:50:43;;;;;;;2.37;2.17;;;20.50;99.90;;;;;;5010890;28;20482;-71
2022/08/01 01:53:13;;;;;;;2.70;2.27;;;20.50;99.90;;;;;;5011105;28;20462;-71
2022/08/01 01:55:41;;;;;;;2.70;2.50;;;20.40;99.90;;;;;;5010304;28;20486;-71
2022/08/01 01:58:09;;;;;;;3.30;2.53;;;20.40;99.90;;;;;;5010812;28;20974;-71
2022/08/01 02:00:38;;;;;;;2.90;2.43;;;20.40;99.90;;;;;;5010754;28;20957;-71
2022/08/01 02:03:08;;;;;;;1.83;1.73;;;20.30;99.90;;;;;;5010978;28;21167;-71
2022/08/01 02:05:36;;;;;;;2.80;2.37;;;20.30;99.90;;;;;;5010128;28;20485;-72
2022/08/01 02:08:04;;;;;;;2.73;2.20;;;20.30;99.90;;;;;;5010960;28;20462;-71
2022/08/01 02:10:33;;;;;;;3.20;2.53;;;20.20;99.90;;;;;;5071265;23;20497;-71
2022/08/01 02:13:02;;;;;;;2.73;2.20;;;20.20;99.90;;;;;;5030350;28;20465;-71
2022/08/01 02:15:32;;;;;;;2.43;2.23;;;20.20;99.90;;;;;;5030009;28;20509;-71
2022/08/01 02:18:01;;;;;;;2.60;2.27;;;20.20;99.90;;;;;;5030473;28;20461;-70
2022/08/01 02:20:31;;;;;;;2.40;2.20;;;20.10;99.90;;;;;;5030609;28;20463;-71
2022/08/01 02:23:06;;;;;;;3.37;2.30;;;20.10;99.90;;;;;;5030626;28;20461;-70
2022/08/01 02:25:37;;;;;;;2.23;2.03;;;20.10;99.90;;;;;;5030062;28;20480;-70
2022/08/01 02:28:06;;;;;;;2.87;2.60;;;20.10;99.90;;;;;;5030478;28;20493;-70
2022/08/01 02:30:35;;;;;;;2.10;1.90;;;20.10;99.90;;;;;;5030617;28;20481;-71
2022/08/01 02:33:06;;;;;;;2.27;2.07;;;20.00;99.90;;;;;;5030473;28;20469;-71
2022/08/01 02:35:38;;;;;;;2.50;1.97;;;20.00;99.90;;;;;;5029993;28;20495;-70
2022/08/01 02:38:07;;;;;;;3.27;2.60;;;20.00;99.90;;;;;;5030045;28;20475;-70
2022/08/01 02:40:36;;;;;;;3.30;2.90;;;20.00;99.90;;;;;;5030582;28;20480;-71
2022/08/01 02:43:06;;;;;;;3.40;2.40;;;20.00;99.90;;;;;;5030358;28;20976;-72
2022/08/01 02:45:35;;;;;;;2.60;2.10;;;20.00;99.90;;;;;;5029900;28;20494;-71
2022/08/01 02:48:06;;;;;;;2.33;2.13;;;19.90;99.90;;;;;;5030306;28;20468;-72
2022/08/01 02:50:36;;;;;;;3.93;1.93;;;19.90;99.90;;;;;;5030337;28;20485;-71
2022/08/01 02:53:04;;;;;;;2.20;2.00;;;19.90;99.90;;;;;;5030244;28;20541;-71
2022/08/01 02:55:33;;;;;;;2.50;2.30;;;19.90;99.90;;;;;;5029765;28;20481;-71
2022/08/01 02:58:01;;;;;;;2.37;2.17;;;19.90;99.90;;;;;;5030175;28;20472;-71
2022/08/01 03:00:30;;;;;;;2.33;2.13;;;19.90;99.90;;;;;;5030372;28;20461;-71
2022/08/01 03:03:02;;;;;;;2.97;1.83;;;19.90;99.90;;;;;;5030398;28;20487;-71
2022/08/01 03:05:31;;;;;;;2.33;1.93;;;19.90;99.90;;;;;;5029876;28;20471;-71
2022/08/01 03:08:01;;;;;;;2.17;1.87;;;19.90;99.90;;;;;;5029918;28;20458;-70
2022/08/01 03:10:29;;;;;;;2.37;2.17;;;19.80;99.90;;;;;;5030239;28;20489;-70
2022/08/01 03:12:58;;;;;;;2.70;2.50;;;19.80;99.90;;;;;;5029556;28;20472;-70
2022/08/01 03:15:27;;;;;;;2.07;1.97;;;19.80;99.90;;;;;;5029691;28;20469;-70
2022/08/01 03:17:55;;;;;;;2.60;2.40;;;19.70;99.90;;;;;;5030020;28;20464;-71
2022/08/01 03:20:24;;;;;;;3.33;2.37;;;19.70;99.90;;;;;;5030176;28;20469;-71
2022/08/01 03:22:53;;;;;;;2.50;2.30;;;19.70;99.90;;;;;;5030408;28;20909;-71
2022/08/01 03:25:23;;;;;;;3.03;2.37;;;19.70;99.90;;;;;;5033174;28;20504;-71
2022/08/01 03:27:55;;;;;;;2.57;2.27;;;19.60;99.90;;;;;;5033843;28;20468;-71
2022/08/01 03:30:24;;;;;;;2.20;2.00;;;19.60;99.90;;;;;;5033368;28;20453;-71
2022/08/01 03:32:51;;;;;;;2.00;1.80;;;19.60;99.90;;;;;;5033608;28;20452;-71
2022/08/01 03:35:18;;;;;;;3.40;2.40;;;19.60;99.90;;;;;;5032529;28;20492;-70
2022/08/01 03:37:48;;;;;;;2.40;2.20;;;19.60;99.90;;;;;;5033461;28;20472;-71
2022/08/01 03:40:24;;;;;;;2.53;2.30;;;19.60;99.90;;;;;;5033146;28;20457;-70
2022/08/01 03:42:57;;;;;;;2.83;2.30;;;19.60;99.90;;;;;;5033373;28;20461;-71
2022/08/01 03:45:28;;;;;;;3.20;2.90;;;19.60;99.90;;;;;;5032577;28;20468;-71
2022/08/01 03:48:00;;;;;;;2.20;2.00;;;19.60;99.90;;;;;;5032919;28;20514;-71
2022/08/01 03:50:29;;;;;;;3.60;2.40;;;19.60;99.90;;;;;;5033088;28;20465;-71
2022/08/01 03:52:59;;;;;;;2.53;2.20;;;19.50;99.90;;;;;;5032882;28;20460;-71
2022/08/01 03:55:29;;;;;;;2.30;2.10;;;19.50;99.90;;;;;;5032407;28;20820;-71
2022/08/01 03:57:57;;;;;;;2.30;2.10;;;19.50;99.90;;;;;;5032838;28;20829;-71
2022/08/01 04:00:25;;;;;;;2.33;2.13;;;19.50;99.90;;;;;;5032988;28;20457;-70
2022/08/01 04:02:52;;;;;;;2.60;1.93;;;19.60;99.90;;;;;;5032958;28;20461;-70
2022/08/01 04:05:19;;;;;;;2.90;2.37;;;19.60;99.90;;;;;;5032022;28;21030;-69
2022/08/01 04:07:48;;;;;;;2.57;2.37;;;19.60;99.90;;;;;;5032975;28;20464;-70
2022/08/01 04:10:14;;;;;;;2.60;2.30;;;19.60;99.90;;;;;;5032258;28;20481;-70
2022/08/01 04:12:42;;;;;;;2.00;1.70;;;19.50;99.90;;;;;;5032502;28;20493;-70
2022/08/01 04:15:09;;;;;;;2.20;2.00;;;19.60;99.90;;;;;;5031665;28;20465;-70
2022/08/01 04:17:36;;;;;;;2.80;2.60;;;19.60;99.90;;;;;;5032085;28;20858;-69
2022/08/01 04:20:03;;;;;;;3.73;2.60;;;19.60;99.90;;;;;;5032222;28;20468;-69
2022/08/01 04:22:31;;;;;;;2.50;2.30;;;19.60;99.90;;;;;;5032394;28;20465;-70
2022/08/01 04:25:01;;;;;;;3.53;2.37;;;19.60;99.90;;;;;;5031665;28;20465;-70
2022/08/01 04:27:31;;;;;;;2.30;2.10;;;19.60;99.90;;;;;;5046589;22;20523;-69
2022/08/01 04:30:00;;;;;;;2.10;1.90;;;19.60;99.90;;;;;;5034898;28;20803;-68
2022/08/01 04:32:31;;;;;;;2.47;2.17;;;19.70;99.90;;;;;;5031757;28;20489;-68
2022/08/01 04:35:00;;;;;;;2.43;2.23;;;19.70;99.90;;;;;;5031310;28;20875;-67
2022/08/01 04:37:29;;;;;;;2.40;2.20;;;19.70;99.90;;;;;;5031803;28;20516;-69
2022/08/01 04:39:58;;;;;;;1.97;1.70;;;19.70;99.90;;;;;;5031848;28;20822;-69
2022/08/01 04:42:25;;;;;;;2.03;1.83;;;19.70;99.90;;;;;;5032057;28;20470;-68
2022/08/01 04:44:52;;;;;;;2.97;2.20;;;19.70;99.90;;;;;;5031347;28;20457;-68
2022/08/01 04:47:21;;;;;;;2.13;1.93;;;19.70;99.90;;;;;;5031546;28;20543;-68
2022/08/01 04:49:48;;;;;;;2.70;2.33;;;19.70;99.90;;;;;;5031493;28;20472;-69
2022/08/01 04:52:14;;;;;;;2.40;2.20;;;19.80;99.90;;;;;;5031648;28;20485;-68
2022/08/01 04:54:41;;;;;;;2.17;1.97;;;19.80;99.90;;;;;;5031233;28;20461;-68
2022/08/01 04:57:08;;;;;;;2.13;1.93;;;19.80;99.90;;;;;;5031607;28;20482;-68
2022/08/01 04:59:41;;;;;;;2.10;1.87;;;19.90;99.90;;;;;;5039566;28;20452;-67
2022/08/01 05:02:09;;;;;;;1.90;1.70;;;19.90;99.90;;;;;;5042425;28;20535;-68
2022/08/01 05:04:38;;;;;;;2.37;2.17;;;19.90;99.90;;;;;;5042500;28;20460;-67
2022/08/01 05:07:05;;;;;;;2.73;2.33;;;19.90;99.90;;;;;;5052873;28;20491;-68
2022/08/01 05:09:32;;;;;;;1.77;1.67;;;19.90;99.90;;;;;;5051395;28;20543;-68
2022/08/01 05:11:59;;;;;;;2.33;2.13;;;19.90;99.90;;;;;;5051404;28;20654;-68
2022/08/01 05:14:26;;;;;;;1.80;1.67;;;19.90;99.90;;;;;;5050946;28;20224;-67
2022/08/01 05:16:53;;;;;;;2.20;2.00;;;19.90;99.90;;;;;;5050940;28;20546;-68
2022/08/01 05:19:20;;;;;;;2.27;2.07;;;19.90;99.90;;;;;;5050976;28;20551;-68
2022/08/01 05:21:48;;;;;;;2.33;2.10;;;19.90;99.90;;;;;;5051008;28;20970;-68
2022/08/01 05:24:15;;;;;;;1.93;1.73;;;19.90;99.90;;;;;;5050662;28;20904;-68
2022/08/01 05:26:42;;;;;;;2.00;1.90;;;19.90;99.90;;;;;;5051081;28;20484;-68
2022/08/01 05:29:08;;;;;;;2.07;1.87;;;20.00;99.90;;;;;;5050564;28;20472;-68
2022/08/01 05:31:35;;;;;;;3.13;2.10;;;20.10;99.90;;;;;;5050812;28;20488;-68
2022/08/01 05:34:02;;;;;;;2.47;2.27;;;20.10;99.90;;;;;;5049858;28;20460;-67
2022/08/01 05:36:29;;;;;;;2.23;2.03;;;20.20;99.90;;;;;;5048860;28;20488;-69
2022/08/01 05:38:57;;;;;;;2.23;1.90;;;20.20;99.90;;;;;;5049902;28;20463;-68
2022/08/01 05:41:24;;;;;;;2.33;2.13;;;20.20;99.90;;;;;;5050574;28;20460;-67
2022/08/01 05:43:50;;;;;;;2.27;2.00;;;20.20;99.90;;;;;;5049992;28;20456;-68
2022/08/01 05:46:17;;;;;;;2.63;2.07;;;20.30;99.90;;;;;;5049384;28;21014;-68
2022/08/01 05:48:44;;;;;;;2.50;2.00;;;20.30;99.90;;;;;;5050504;28;20467;-68
2022/08/01 05:51:10;;;;;;;1.97;1.83;;;20.40;99.90;;;;;;5049811;28;20459;-68
2022/08/01 05:53:37;;;;;;;2.03;1.83;;;20.40;99.90;;;;;;5049865;28;20943;-68
2022/08/01 05:56:05;;;;;;;1.80;1.70;;;20.50;99.90;;;;;;5049832;28;21033;-69
2022/08/01 05:58:32;;;;;;;1.80;1.70;;;20.50;99.90;;;;;;5050479;28;20467;-69
2022/08/01 06:00:59;;;;;;;2.27;1.90;;;20.50;99.90;;;;;;5050419;28;20837;-69
2022/08/01 06:03:26;;;;;;;2.90;1.57;;;20.60;99.90;;;;;;5049646;28;20468;-69
2022/08/01 06:05:53;;;;;;;2.70;1.90;;;20.60;99.90;;;;;;5050083;28;20709;-69
2022/08/01 06:08:19;;;;;;;2.17;1.97;;;20.70;99.90;;;;;;5049777;28;20496;-69
2022/08/01 06:10:46;;;;;;;2.00;1.80;;;20.80;99.90;;;;;;5050126;28;20465;-69
2022/08/01 06:13:14;;;;;;;1.70;1.60;;;20.80;99.90;;;;;;5049938;28;20545;-68
2022/08/01 06:15:41;;;;;;;2.07;1.87;;;20.90;99.90;;;;;;5049492;28;20541;-70
2022/08/01 06:18:08;;;;;;;2.73;1.77;;;21.00;99.90;;;;;;5050051;28;20471;-68
2022/08/01 06:20:35;;;;;;;1.73;1.63;;;21.00;99.90;;;;;;5050518;28;20833;-69
2022/08/01 06:23:01;;;;;;;2.90;1.90;;;21.10;99.90;;;;;;5050527;28;20457;-69
2022/08/01 06:25:28;;;;;;;1.70;1.60;;;21.20;99.90;;;;;;5049730;28;20463;-68
2022/08/01 06:27:55;;;;;;;2.13;2.03;;;21.20;99.90;;;;;;5050654;28;20519;-69
2022/08/01 06:30:23;;;;;;;2.10;1.73;;;21.30;99.90;;;;;;5050676;28;20468;-69
2022/08/01 06:32:50;;;;;;;1.50;1.40;;;21.30;99.90;;;;;;5050239;28;21044;-69
2022/08/01 06:35:17;;;;;;;1.43;1.33;;;21.30;99.90;;;;;;5049731;28;20464;-69
2022/08/01 06:37:44;;;;;;;2.17;1.97;;;21.40;99.90;;;;;;5050137;28;20467;-69
2022/08/01 06:40:12;;;;;;;2.20;1.53;;;21.40;99.90;;;;;;5050200;28;20502;-69
2022/08/01 06:42:39;;;;;;;3.53;1.87;;;21.50;99.90;;;;;;5050150;28;20468;-69
2022/08/01 06:45:08;;;;;;;1.55;1.45;;;21.40;99.90;;;;;;5047947;28;20463;-70
2022/08/01 06:47:36;;;;;;;3.90;1.93;;;21.40;99.90;;;;;;5049524;28;20232;-69
2022/08/01 06:50:03;;;;;;;1.83;1.70;;;21.50;99.90;;;;;;5049770;28;20466;-69
2022/08/01 06:52:30;;;;;;;2.47;1.83;;;21.60;99.90;;;;;;5050040;28;20485;-68
2022/08/01 06:54:57;;;;;;;1.90;1.80;;;21.60;99.90;;;;;;5049303;28;20472;-69
2022/08/01 06:57:24;;;;;;;2.60;2.10;;;21.70;99.90;;;;;;5049986;28;20491;-69
2022/08/01 06:59:50;;;;;;;1.70;1.60;;;21.70;99.90;;;;;;5053207;28;20466;-69
2022/08/01 07:02:17;;;;;;;1.60;1.50;;;21.70;99.90;;;;;;5053630;28;20466;-69
2022/08/01 07:04:45;;;;;;;1.80;1.70;;;21.80;99.90;;;;;;5053244;28;20464;-69
2022/08/01 07:07:12;;;;;;;2.10;1.90;;;21.90;99.90;;;;;;5053388;28;20485;-69
2022/08/01 07:09:40;;;;;;;1.83;1.67;;;21.90;99.90;;;;;;5053744;28;20466;-69
2022/08/01 07:12:07;;;;;;;1.90;1.70;;;22.00;99.90;;;;;;5053195;28;21040;-70
2022/08/01 07:14:34;;;;;;;1.70;1.60;;;22.00;99.90;;;;;;5053098;28;20468;-70
2022/08/01 07:17:01;;;;;;;2.27;1.70;;;22.10;99.90;;;;;;5052938;28;20485;-70
2022/08/01 07:19:28;;;;;;;2.00;1.80;;;22.10;99.90;;;;;;5053454;28;20964;-69
2022/08/01 07:21:56;;;;;;;1.50;1.40;;;22.10;99.90;;;;;;5053452;28;21023;-70
2022/08/01 07:24:22;;;;;;;1.90;1.80;;;22.20;99.90;;;;;;5052701;28;20470;-69
2022/08/01 07:26:50;;;;;;;1.70;1.60;;;22.20;99.90;;;;;;5053325;28;20493;-69
2022/08/01 07:29:16;;;;;;;2.47;2.27;;;22.20;99.90;;;;;;5052808;28;20484;-69
2022/08/01 07:31:43;;;;;;;1.53;1.43;;;22.30;99.90;;;;;;5053096;28;20902;-69
2022/08/01 07:34:10;;;;;;;1.80;1.53;;;22.40;99.90;;;;;;5052628;28;20462;-69
2022/08/01 07:36:36;;;;;;;1.90;1.53;;;22.40;99.90;;;;;;5053064;28;20480;-69
2022/08/01 07:39:04;;;;;;;1.73;1.60;;;22.50;99.90;;;;;;5053129;28;20461;-70
2022/08/01 07:41:31;;;;;;;1.70;1.60;;;22.50;99.90;;;;;;5052935;28;20461;-70
2022/08/01 07:43:59;;;;;;;1.73;1.43;;;22.60;99.90;;;;;;5052529;28;20467;-69
2022/08/01 07:46:26;;;;;;;1.70;1.60;;;22.70;99.90;;;;;;5052708;28;20484;-69
2022/08/01 07:48:53;;;;;;;6.90;2.00;;;22.90;99.90;;;;;;5053050;28;20838;-69
2022/08/01 07:51:20;;;;;;;4.73;2.27;;;22.90;99.90;;;;;;5053048;28;20470;-67
2022/08/01 07:53:47;;;;;;;2.37;2.17;;;22.90;99.90;;;;;;5051636;28;20497;-69
2022/08/01 07:56:15;;;;;;;2.00;1.80;;;23.00;99.90;;;;;;5050173;28;20491;-69
2022/08/01 07:58:41;;;;;;;2.47;2.27;;;23.00;99.90;;;;;;5050323;28;20465;-69
2022/08/01 08:01:08;;;;;;;2.50;2.03;;;23.00;99.90;;;;;;5050003;28;20972;-69
2022/08/01 08:03:35;;;;;;;2.00;1.80;;;23.10;99.90;;;;;;5049496;28;20516;-69
2022/08/01 08:06:02;;;;;;;2.10;1.77;;;23.20;99.90;;;;;;5050190;28;20857;-68
2022/08/01 08:08:28;;;;;;;3.43;1.80;;;23.30;99.90;;;;;;5050330;28;20458;-69
2022/08/01 08:10:55;;;;;;;2.47;2.10;;;23.30;99.90;;;;;;5104801;22;20886;-92
2022/08/01 08:13:23;;;;;;;2.53;2.33;;;23.40;99.90;;;;;;5057710;28;20474;-94
2022/08/01 08:15:50;;;;;;;1.87;1.77;;;23.60;99.90;;;;;;5060216;28;20501;-91
2022/08/01 08:18:17;;;;;;;2.40;2.20;;;23.50;99.90;;;;;;5062318;28;20496;-92
2022/08/01 08:20:44;;;;;;;3.10;2.50;;;23.40;99.90;;;;;;5063133;28;20480;-92
2022/08/01 08:25:51;;;;;;;2.57;2.37;;;23.60;99.90;;;;;;5058802;28;20444;-93
2022/08/01 08:28:18;;;;;;;2.50;2.30;;;23.90;99.90;;;;;;5065358;28;20554;-92
2022/08/01 08:30:46;;;;;;;2.47;2.27;;;24.00;99.90;;;;;;5065197;28;20459;-92
2022/08/01 08:33:13;;;;;;;2.43;2.20;;;24.00;99.90;;;;;;5067744;28;20486;-93
2022/08/01 08:35:41;;;;;;;5.90;2.43;;;23.90;99.90;;;;;;5069066;28;20470;-92
2022/08/01 08:38:08;;;;;;;5.53;2.00;;;23.90;99.90;;;;;;5066929;28;20460;-92
2022/08/01 08:40:38;;;;;;;2.43;1.90;;;23.80;99.90;;;;;;5064323;28;20561;-92
2022/08/01 08:43:06;;;;;;;3.50;1.90;;;23.80;99.90;;;;;;5069219;28;20461;-92
2022/08/01 08:45:34;;;;;;;2.30;2.10;;;23.70;99.90;;;;;;5066927;28;20595;-93
2022/08/01 08:48:03;;;;;;;2.10;1.90;;;23.80;99.90;;;;;;5065256;28;20500;-93
2022/08/01 08:50:30;;;;;;;2.43;2.23;;;24.00;99.90;;;;;;5067430;28;20484;-93
2022/08/01 08:53:02;;;;;;;2.60;2.40;;;24.10;99.90;;;;;;5066214;28;20486;-93
2022/08/01 08:55:30;;;;;;;2.97;2.40;;;24.30;99.90;;;;;;5066798;28;21007;-95
2022/08/01 08:58:10;;;;;;;3.73;3.23;;;24.30;99.90;;;;;;5061706;28;20466;-91
2022/08/01 09:00:36;;;;;;;3.27;2.97;;;24.40;99.90;;;;;;5059091;28;20490;-92
2022/08/01 09:03:29;;;;;;;2.97;2.67;;;24.50;99.90;;;;;;5060196;28;20500;-91
2022/08/01 09:05:56;;;;;;;2.93;2.63;;;24.60;99.90;;;;;;5058259;28;20488;-92
2022/08/01 09:08:23;;;;;;;3.03;2.57;;;24.70;99.90;;;;;;5064141;28;20971;-92
2022/08/01 09:10:50;;;;;;;3.00;2.73;;;24.60;99.90;;;;;;5060591;28;20488;-92
2022/08/01 09:13:17;;;;;;;3.17;2.83;;;24.70;99.90;;;;;;5061027;28;20474;-92
2022/08/01 09:15:50;;;;;;;3.23;2.50;;;24.60;99.90;;;;;;5062673;28;20463;-92
2022/08/01 09:18:33;;;;;;;2.80;2.60;;;24.50;99.90;;;;;;5061899;28;20470;-92
2022/08/01 09:21:28;;;;;;;2.80;2.60;;;24.40;99.90;;;;;;5059044;28;20488;-92
2022/08/01 09:24:19;;;;;;;3.13;2.83;;;24.30;99.90;;;;;;5060431;28;21018;-93
2022/08/01 09:26:53;;;;;;;3.67;3.10;;;24.30;99.90;;;;;;5069752;28;20456;-93
2022/08/01 09:29:23;;;;;;;3.17;2.87;;;24.40;99.90;;;;;;5073360;28;20454;-95
2022/08/01 09:31:51;;;;;;;3.47;3.17;;;24.60;99.90;;;;;;5060771;22;20503;-69
2022/08/01 09:34:25;;;;;;;2.67;2.47;;;24.70;99.90;;;;;;5029406;28;20887;-69
2022/08/01 09:36:55;;;;;;;3.63;3.33;;;24.90;99.90;;;;;;5030094;28;21001;-70
2022/08/01 09:39:24;;;;;;;3.50;3.20;;;24.90;99.90;;;;;;5030456;28;20456;-69
2022/08/01 09:41:52;;;;;;;3.83;3.53;;;24.90;99.90;;;;;;5029391;28;20826;-68
2022/08/01 09:44:20;;;;;;;5.57;4.10;;;25.10;99.90;;;;;;5027459;28;21293;-69
2022/08/01 09:46:55;;;;;;;4.30;4.00;;;25.30;99.90;;;;;;5030519;28;20484;-69
2022/08/01 09:49:31;;;;;;;3.43;3.13;;;25.50;99.90;;;;;;5030518;28;20470;-69
2022/08/01 09:51:59;;;;;;;4.77;4.37;;;25.70;99.90;;;;;;5030626;28;20471;-69
2022/08/01 09:54:31;;;;;;;4.57;4.20;;;25.80;99.90;;;;;;5029231;28;20842;-69
2022/08/01 09:57:13;;;;;;;4.67;4.33;;;25.70;99.90;;;;;;5030496;28;20479;-68
2022/08/01 09:59:43;;;;;;;4.80;4.40;;;25.60;99.90;;;;;;5029581;28;20465;-69
2022/08/01 10:02:15;;;;;;;4.13;3.77;;;25.50;99.90;;;;;;5030697;28;20464;-69
2022/08/01 10:04:51;;;;;;;4.17;3.77;;;25.50;99.90;;;;;;5029272;28;20555;-68
2022/08/01 10:07:20;;;;;;;4.07;3.73;;;25.40;99.90;;;;;;5030335;28;20484;-68
2022/08/01 10:09:47;;;;;;;3.50;3.20;;;25.30;99.90;;;;;;5029917;28;20465;-69
2022/08/01 10:12:16;;;;;;;4.70;3.70;;;25.20;99.90;;;;;;5030121;28;20885;-69
2022/08/01 10:14:43;;;;;;;4.47;3.70;;;25.20;99.90;;;;;;5029180;28;20510;-69
2022/08/01 10:17:14;;;;;;;4.20;3.80;;;25.30;99.90;;;;;;5030247;28;20499;-69
2022/08/01 10:19:43;;;;;;;4.30;3.90;;;25.40;99.90;;;;;;5029295;28;20878;-68
2022/08/01 10:22:13;;;;;;;4.20;3.80;;;25.40;99.90;;;;;;5030545;28;20906;-68
2022/08/01 10:24:41;;;;;;;3.83;3.53;;;25.50;99.90;;;;;;5029311;28;20244;-67
2022/08/01 10:27:10;;;;;;;3.73;3.43;;;25.60;99.90;;;;;;5030041;28;20487;-68
2022/08/01 10:29:41;;;;;;;4.53;4.13;;;25.70;99.90;;;;;;5028715;28;20461;-68
2022/08/01 10:32:09;;;;;;;4.10;3.80;;;25.80;99.90;;;;;;5031032;28;20464;-69
2022/08/01 10:34:37;;;;;;;3.80;3.50;;;25.90;99.90;;;;;;5034138;28;20457;-69
2022/08/01 10:37:04;;;;;;;4.57;3.60;;;26.20;99.90;;;;;;5035239;28;20516;-68
2022/08/01 10:39:33;;;;;;;4.10;3.60;;;26.30;99.90;;;;;;5034589;28;20560;-67
2022/08/01 10:42:00;;;;;;;3.67;3.37;;;26.50;99.90;;;;;;5033464;28;20461;-69
2022/08/01 10:44:29;;;;;;;3.97;3.30;;;26.60;99.90;;;;;;5033600;28;20774;-69
2022/08/01 10:47:02;;;;;;;3.50;3.20;;;26.80;99.90;;;;;;5034102;28;20517;-69
2022/08/01 10:49:33;;;;;;;4.40;3.33;;;26.90;99.90;;;;;;5033432;28;20977;-69
2022/08/01 10:52:00;;;;;;;3.50;3.20;;;27.20;99.90;;;;;;5033899;28;20840;-70
2022/08/01 10:54:27;;;;;;;3.43;3.10;;;27.30;99.90;;;;;;5033081;28;20817;-69
2022/08/01 10:57:00;;;;;;;3.13;2.83;;;27.30;99.80;;;;;;5032265;28;20564;-68
2022/08/01 10:59:28;;;;;;;4.43;2.80;;;27.10;99.90;;;;;;5027536;28;21183;-68
2022/08/01 11:01:59;;;;;;;2.87;2.67;;;26.90;99.90;;;;;;5033246;28;20473;-68
2022/08/01 11:04:47;;;;;;;2.83;2.63;;;26.60;99.90;;;;;;5033179;28;20485;-71
2022/08/01 11:07:19;;;;;;;2.70;2.50;;;26.40;99.90;;;;;;5032481;28;21018;-70
2022/08/01 11:09:47;;;;;;;3.23;2.93;;;26.20;99.90;;;;;;5032566;28;20468;-71
2022/08/01 11:12:17;;;;;;;3.47;2.80;;;26.10;99.90;;;;;;5033337;28;20838;-71
2022/08/01 11:15:34;;;;;;;3.80;2.47;;;26.10;99.90;;;;;;5032072;28;20457;-71
2022/08/01 11:18:25;;;;;;;2.83;2.63;;;26.10;99.90;;;;;;5032056;28;20578;-70
2022/08/01 11:20:58;;;;;;;3.00;2.80;;;26.10;99.90;;;;;;5032157;28;20460;-72
2022/08/01 11:23:32;;;;;;;2.67;2.47;;;26.10;99.90;;;;;;5032538;28;20571;-70
2022/08/01 11:26:12;;;;;;;3.50;3.10;;;26.00;99.90;;;;;;5032369;28;21051;-70
2022/08/01 11:28:40;;;;;;;2.90;2.70;;;26.00;99.90;;;;;;5032028;28;20833;-71
2022/08/01 11:31:27;;;;;;;3.00;2.73;;;26.00;99.90;;;;;;5032461;28;20469;-71
2022/08/01 11:33:54;;;;;;;2.97;2.70;;;25.80;99.90;;;;;;5031963;28;20464;-70
2022/08/01 11:36:22;;;;;;;3.30;3.00;;;25.60;99.90;;;;;;5032463;28;20479;-70
2022/08/01 11:39:11;;;;;;;2.80;2.60;;;25.40;99.90;;;;;;5031539;28;20556;-70
2022/08/01 11:41:39;;;;;;;2.70;2.50;;;25.40;99.90;;;;;;5032501;28;21030;-70
2022/08/01 11:44:07;;;;;;;2.97;2.67;;;25.20;99.90;;;;;;5028616;28;20481;-73
2022/08/01 11:46:52;;;;;;;2.77;2.57;;;25.10;99.90;;;;;;5031105;28;20553;-69
2022/08/01 11:49:32;;;;;;;2.60;2.40;;;25.10;99.90;;;;;;5032383;28;20573;-69
2022/08/01 11:52:02;;;;;;;2.57;2.37;;;25.00;99.90;;;;;;5032283;28;20465;-69
2022/08/01 11:54:30;;;;;;;2.77;2.50;;;25.00;99.90;;;;;;5032311;28;20805;-69
2022/08/01 11:56:58;;;;;;;2.90;2.70;;;25.00;99.90;;;;;;5031821;28;20994;-69
2022/08/01 11:59:25;;;;;;;2.40;2.20;;;24.90;99.90;;;;;;5031898;28;20503;-70
2022/08/01 12:01:53;;;;;;;2.50;2.30;;;24.90;99.90;;;;;;5032392;28;20468;-69
2022/08/01 12:04:20;;;;;;;3.20;2.23;;;24.90;99.90;;;;;;5031904;28;21195;-69
2022/08/01 12:06:47;;;;;;;2.57;2.37;;;25.00;99.90;;;;;;5031657;28;20547;-69
2022/08/01 12:09:20;;;;;;;2.67;2.43;;;25.00;99.90;;;;;;5030524;28;20529;-69
2022/08/01 12:11:47;;;;;;;3.17;2.57;;;25.00;99.90;;;;;;5048788;28;20489;-70
2022/08/01 12:14:21;;;;;;;3.10;2.33;;;25.00;99.90;;;;;;5052279;28;20460;-70
2022/08/01 12:16:53;;;;;;;2.40;2.20;;;25.10;99.90;;;;;;5051476;28;20983;-69
2022/08/01 12:19:21;;;;;;;2.63;2.07;;;25.10;99.90;;;;;;5051634;28;20977;-70
2022/08/01 12:22:10;;;;;;;2.80;2.27;;;25.10;99.90;;;;;;5051736;28;20467;-71
2022/08/01 12:24:39;;;;;;;2.50;2.10;;;25.10;99.90;;;;;;5044325;28;20903;-71
2022/08/01 12:27:08;;;;;;;2.70;2.50;;;25.10;99.90;;;;;;5016107;28;20509;-71
2022/08/01 12:29:37;;;;;;;2.63;2.43;;;25.10;99.90;;;;;;5030930;28;20460;-68
2022/08/01 12:32:05;;;;;;;2.50;2.30;;;25.10;99.90;;;;;;5031397;28;20476;-67
2022/08/01 12:34:34;;;;;;;2.73;2.50;;;25.10;99.90;;;;;;5031041;28;20551;-70
2022/08/01 12:37:03;;;;;;;2.63;2.43;;;25.10;99.90;;;;;;5031734;28;20491;-69
2022/08/01 12:39:32;;;;;;;2.47;2.27;;;25.20;99.90;;;;;;5030204;28;20503;-69
2022/08/01 12:42:01;;;;;;;3.10;2.30;;;25.50;99.90;;;;;;5031521;28;20464;-68
2022/08/01 12:44:30;;;;;;;2.80;2.30;;;25.70;99.90;;;;;;5031260;28;20488;-71
2022/08/01 12:46:58;;;;;;;2.50;2.30;;;25.80;99.90;;;;;;5030740;28;20489;-69
2022/08/01 12:49:25;;;;;;;2.07;1.97;;;25.70;99.90;;;;;;5030568;28;20461;-69
2022/08/01 12:51:56;;;;;;;2.57;2.37;;;25.70;99.90;;;;;;5031158;28;20461;-67
2022/08/01 12:54:25;;;;;;;2.60;2.40;;;25.80;99.90;;;;;;5030146;28;20550;-67
2022/08/01 12:56:53;;;;;;;3.67;2.60;;;25.90;99.90;;;;;;5029471;28;20489;-67
2022/08/01 12:59:24;;;;;;;2.43;2.23;;;26.10;99.90;;;;;;5030148;28;20992;-68
2022/08/01 13:01:53;;;;;;;2.70;2.50;;;26.10;99.90;;;;;;5030379;28;20464;-67